Sandy Korner, California
Current Conditions -  °F | °C
As of 4:56 PM on Wednesday 17 Dec 2014 (Local Time) from KNJK Reporting Station
Haze Haze  
Wind Chill: 57°   Ceiling: 20000
Heat Index: 57°   Visibility: 6mi
Dew Point: 53°   Wind: 7mph
Humidity: 87%   Direction: 10°N
Pressure: 30.05"   Gusts: NA
Location:  33.093°N, 116.06°W
Report Text: KNJK 180056Z 01006KT 6SM BR FEW030 SCT070 SCT110 BKN200 14/12 A3005 RMK AO2 SLP191 T01390117 $
Loading
Personal Weather Stations






























Interactive Weather Map New forecast layout! Learn more

10-Day Weather Forecast

Advertisements
Track Severe Weather on mobile